Time;durP1;ratioP1;P1;durP2;ratioP2;P2;SDS_P1;SDS_P2;PMS_P1;PMS_P2;Temp;Humidity;BMP_temperature;BMP_pressure;BME280_temperature;BME280_humidity;BME280_pressure;Samples;Min_cycle;Max_cycle;Signal;HPM_P1;HPM_P2
2022/03/31 00:02:21;;;;;;;21.57;11.00;;;9.90;99.90;;;;;;5091041;28;20237;-66
2022/03/31 00:04:48;;;;;;;23.43;12.63;;;9.90;99.90;;;;;;5090754;28;20205;-66
2022/03/31 00:07:15;;;;;;;21.30;11.20;;;9.80;99.90;;;;;;5090833;28;20338;-66
2022/03/31 00:09:43;;;;;;;25.47;12.37;;;9.90;99.90;;;;;;5090195;28;20588;-66
2022/03/31 00:12:10;;;;;;;18.60;11.17;;;9.80;99.90;;;;;;5091254;28;20233;-66
2022/03/31 00:14:38;;;;;;;16.97;11.30;;;9.80;99.90;;;;;;5090715;28;20198;-66
2022/03/31 00:17:05;;;;;;;20.00;10.33;;;9.70;99.90;;;;;;5090821;28;20197;-66
2022/03/31 00:19:32;;;;;;;21.07;11.50;;;9.70;99.90;;;;;;5090862;28;20228;-66
2022/03/31 00:21:59;;;;;;;24.13;12.47;;;9.70;99.90;;;;;;5091137;28;20233;-66
2022/03/31 00:24:26;;;;;;;19.23;10.87;;;9.70;99.90;;;;;;5091797;28;20205;-65
2022/03/31 00:26:54;;;;;;;17.50;12.17;;;9.70;99.90;;;;;;5090680;28;20334;-67
2022/03/31 00:29:22;;;;;;;19.90;12.50;;;9.70;99.90;;;;;;5090958;28;20202;-67
2022/03/31 00:31:49;;;;;;;23.07;13.03;;;9.70;99.90;;;;;;5090285;28;20197;-67
2022/03/31 00:34:16;;;;;;;27.93;12.77;;;9.60;99.90;;;;;;5090840;28;20205;-67
2022/03/31 00:36:43;;;;;;;21.53;11.43;;;9.60;99.90;;;;;;5090247;28;20669;-69
2022/03/31 00:41:56;;;;;;;19.93;11.63;;;9.50;99.90;;;;;;5090339;28;20212;-68
2022/03/31 00:44:23;;;;;;;18.97;11.60;;;9.50;99.90;;;;;;5090453;28;20201;-68
2022/03/31 00:46:52;;;;;;;21.70;11.70;;;9.50;99.90;;;;;;5090355;28;20581;-67
2022/03/31 00:49:20;;;;;;;17.23;12.87;;;9.60;99.90;;;;;;5090588;28;20209;-67
2022/03/31 00:51:48;;;;;;;18.80;12.97;;;9.70;99.90;;;;;;5090216;28;20676;-65
2022/03/31 00:54:17;;;;;;;20.67;12.07;;;9.80;99.90;;;;;;5090618;28;20247;-66
2022/03/31 00:56:45;;;;;;;23.00;11.43;;;9.80;99.90;;;;;;5090088;28;20209;-67
2022/03/31 00:59:14;;;;;;;20.23;12.40;;;9.80;99.90;;;;;;5090396;28;20197;-67
2022/03/31 01:01:42;;;;;;;22.37;13.37;;;9.90;99.90;;;;;;5090015;28;20233;-67
2022/03/31 01:04:10;;;;;;;18.57;11.47;;;9.90;99.90;;;;;;5090750;28;20220;-68
2022/03/31 01:06:37;;;;;;;20.50;12.73;;;9.90;99.90;;;;;;5089965;28;20209;-68
2022/03/31 01:09:05;;;;;;;20.23;11.83;;;9.90;99.90;;;;;;5092932;28;20214;-67
2022/03/31 01:11:32;;;;;;;20.90;11.93;;;10.00;99.90;;;;;;5094243;28;20212;-68
2022/03/31 01:13:59;;;;;;;20.73;12.50;;;9.90;99.90;;;;;;5094859;28;20614;-67
2022/03/31 01:16:30;;;;;;;23.60;13.30;;;9.90;99.90;;;;;;5094402;28;20213;-67
2022/03/31 01:18:57;;;;;;;24.17;12.63;;;9.80;99.90;;;;;;5093901;28;20206;-67
2022/03/31 01:21:24;;;;;;;26.83;13.43;;;9.80;99.90;;;;;;5094136;28;20652;-68
2022/03/31 01:23:54;;;;;;;18.50;11.53;;;9.80;99.90;;;;;;5093762;28;20258;-68
2022/03/31 01:26:22;;;;;;;23.50;12.43;;;9.80;99.90;;;;;;5094025;28;20239;-68
2022/03/31 01:28:50;;;;;;;18.20;12.63;;;9.80;99.90;;;;;;5093347;28;20247;-67
2022/03/31 01:31:17;;;;;;;22.63;11.50;;;9.80;99.90;;;;;;5093926;28;20300;-67
2022/03/31 01:33:44;;;;;;;22.20;12.13;;;10.00;99.90;;;;;;5093637;28;20205;-68
2022/03/31 01:36:11;;;;;;;26.80;13.53;;;10.00;99.90;;;;;;5093962;28;20635;-69
2022/03/31 01:38:39;;;;;;;20.60;13.07;;;10.00;99.90;;;;;;5093280;28;20197;-68
2022/03/31 01:41:07;;;;;;;20.67;12.37;;;9.90;99.90;;;;;;5093702;28;20607;-68
2022/03/31 01:43:34;;;;;;;21.67;12.63;;;9.90;99.90;;;;;;5092790;28;20281;-68
2022/03/31 01:46:01;;;;;;;21.77;13.97;;;9.90;99.90;;;;;;5093817;28;20201;-67
2022/03/31 01:48:28;;;;;;;28.77;12.77;;;9.90;99.90;;;;;;5094044;28;20258;-67
2022/03/31 01:50:56;;;;;;;20.43;14.23;;;9.80;99.90;;;;;;5093458;28;20201;-67
2022/03/31 01:53:23;;;;;;;17.43;12.70;;;9.90;99.90;;;;;;5093551;28;20202;-67
2022/03/31 01:55:50;;;;;;;22.57;14.00;;;10.00;99.90;;;;;;5092942;28;20254;-67
2022/03/31 01:58:18;;;;;;;20.80;12.30;;;10.00;99.90;;;;;;5093182;28;20718;-67
2022/03/31 02:00:45;;;;;;;21.60;12.87;;;10.00;99.90;;;;;;5093045;28;20294;-69
2022/03/31 02:03:12;;;;;;;18.30;12.93;;;10.00;99.90;;;;;;5093278;28;20618;-68
2022/03/31 02:05:39;;;;;;;18.60;11.87;;;9.90;99.90;;;;;;5090166;28;20198;-69
2022/03/31 02:08:06;;;;;;;21.80;13.53;;;10.00;99.90;;;;;;5073411;28;20210;-68
2022/03/31 02:10:33;;;;;;;20.33;11.33;;;10.00;99.90;;;;;;5072617;28;20206;-68
2022/03/31 02:13:01;;;;;;;24.30;13.07;;;10.00;99.90;;;;;;5072942;28;20264;-69
2022/03/31 02:15:30;;;;;;;20.73;12.60;;;9.90;99.90;;;;;;5073212;28;20681;-68
2022/03/31 02:17:57;;;;;;;22.37;12.57;;;9.90;99.90;;;;;;5072665;28;20637;-68
2022/03/31 02:20:24;;;;;;;24.50;13.13;;;9.90;99.90;;;;;;5072325;28;20280;-70
2022/03/31 02:22:51;;;;;;;21.00;12.23;;;9.90;99.90;;;;;;5072240;28;20210;-69
2022/03/31 02:25:19;;;;;;;19.70;13.33;;;9.90;99.90;;;;;;5072708;28;20657;-69
2022/03/31 02:27:50;;;;;;;23.20;13.27;;;9.90;99.90;;;;;;5072034;28;20576;-69
2022/03/31 02:30:17;;;;;;;19.57;12.17;;;9.90;99.90;;;;;;5072542;28;20263;-68
2022/03/31 02:32:46;;;;;;;26.77;14.20;;;9.90;99.90;;;;;;5072134;28;20198;-67
2022/03/31 02:35:13;;;;;;;21.60;13.47;;;9.90;99.90;;;;;;5072549;28;20248;-69
2022/03/31 02:37:40;;;;;;;17.73;11.83;;;9.90;99.90;;;;;;5071921;28;20206;-68
2022/03/31 02:40:08;;;;;;;20.63;13.50;;;9.90;99.90;;;;;;5072323;28;20256;-69
2022/03/31 02:42:35;;;;;;;19.47;13.13;;;9.90;99.90;;;;;;5072065;28;20283;-70
2022/03/31 02:45:03;;;;;;;18.80;12.20;;;9.90;99.90;;;;;;5072434;28;20232;-69
2022/03/31 02:47:30;;;;;;;22.87;12.70;;;9.90;99.90;;;;;;5072614;28;20209;-69
2022/03/31 02:49:58;;;;;;;19.00;11.47;;;9.90;99.90;;;;;;5071972;28;20736;-70
2022/03/31 02:52:25;;;;;;;17.53;12.30;;;9.90;99.90;;;;;;5072649;28;20202;-71
2022/03/31 02:57:37;;;;;;;23.40;12.10;;;9.90;99.90;;;;;;5071682;28;20204;-70
2022/03/31 03:00:05;;;;;;;21.27;11.97;;;9.90;99.90;;;;;;5072045;28;20205;-69
2022/03/31 03:02:32;;;;;;;21.40;12.83;;;9.90;99.90;;;;;;5071834;28;20206;-70
2022/03/31 03:05:01;;;;;;;17.67;12.63;;;9.90;99.90;;;;;;5072371;28;20279;-69
2022/03/31 03:07:28;;;;;;;20.80;13.30;;;9.80;99.90;;;;;;5072194;28;20344;-70
2022/03/31 03:09:55;;;;;;;21.10;11.73;;;9.90;99.90;;;;;;5071162;28;20221;-68
2022/03/31 03:12:22;;;;;;;19.63;12.23;;;9.80;99.90;;;;;;5071808;28;20210;-69
2022/03/31 03:14:51;;;;;;;19.47;13.00;;;9.90;99.90;;;;;;5071302;28;20206;-68
2022/03/31 03:17:18;;;;;;;21.93;14.63;;;9.80;99.90;;;;;;5071600;28;20216;-69
2022/03/31 03:19:45;;;;;;;20.60;12.77;;;9.80;99.90;;;;;;5070911;28;20209;-69
2022/03/31 03:22:14;;;;;;;20.30;12.60;;;9.80;99.90;;;;;;5071492;28;20755;-69
2022/03/31 03:24:41;;;;;;;20.80;12.53;;;9.80;99.90;;;;;;5071002;28;20206;-70
2022/03/31 03:27:08;;;;;;;23.10;13.57;;;9.80;99.90;;;;;;5071534;28;20210;-69
2022/03/31 03:29:35;;;;;;;26.53;12.83;;;9.70;99.90;;;;;;5070934;28;20202;-70
2022/03/31 03:32:02;;;;;;;21.53;13.17;;;9.70;99.90;;;;;;5070753;28;20202;-69
2022/03/31 03:34:29;;;;;;;17.07;13.03;;;9.70;99.90;;;;;;5071803;28;20262;-70
2022/03/31 03:36:56;;;;;;;19.33;11.70;;;9.80;99.90;;;;;;5071125;28;20727;-69
2022/03/31 03:39:24;;;;;;;30.13;14.80;;;9.70;99.90;;;;;;5071120;28;20202;-70
2022/03/31 03:41:51;;;;;;;23.00;13.93;;;9.70;99.90;;;;;;5070776;28;20234;-69
2022/03/31 03:44:18;;;;;;;20.33;12.53;;;9.70;99.90;;;;;;5071101;28;20202;-68
2022/03/31 03:46:45;;;;;;;25.37;14.77;;;9.70;99.90;;;;;;5070986;28;20255;-68
2022/03/31 03:49:12;;;;;;;22.63;13.33;;;9.70;99.90;;;;;;5071280;28;20202;-69
2022/03/31 03:51:39;;;;;;;23.67;12.53;;;9.70;99.90;;;;;;5070774;28;20587;-69
2022/03/31 03:54:06;;;;;;;22.40;13.03;;;9.70;99.90;;;;;;5070849;28;20252;-69
2022/03/31 03:56:34;;;;;;;23.90;13.50;;;9.70;99.90;;;;;;5070896;28;20259;-69
2022/03/31 03:59:01;;;;;;;27.07;16.10;;;9.60;99.90;;;;;;5071009;28;20247;-69
2022/03/31 04:01:28;;;;;;;19.27;13.67;;;9.60;99.90;;;;;;5071160;28;20230;-69
2022/03/31 04:03:55;;;;;;;22.87;13.97;;;9.60;99.90;;;;;;5070873;28;20255;-69
2022/03/31 04:06:22;;;;;;;20.27;13.60;;;9.60;99.90;;;;;;5070899;28;20202;-69
2022/03/31 04:08:49;;;;;;;20.13;13.03;;;9.70;99.90;;;;;;5070239;28;20225;-69
2022/03/31 04:11:16;;;;;;;23.17;15.23;;;9.60;99.90;;;;;;5070840;28;20260;-71
2022/03/31 04:13:46;;;;;;;22.93;14.17;;;9.70;99.90;;;;;;5070674;28;20581;-68
2022/03/31 04:16:13;;;;;;;26.60;14.50;;;9.70;99.90;;;;;;5071028;28;20198;-69
2022/03/31 04:18:40;;;;;;;24.67;14.00;;;9.70;99.90;;;;;;5070326;28;20731;-70
2022/03/31 04:21:07;;;;;;;23.57;13.03;;;9.70;99.90;;;;;;5070584;28;20654;-70
2022/03/31 04:23:34;;;;;;;19.37;12.73;;;9.60;99.90;;;;;;5070086;28;20202;-70
2022/03/31 04:26:01;;;;;;;18.23;13.10;;;9.70;99.90;;;;;;5073141;28;20292;-70
2022/03/31 04:28:28;;;;;;;23.17;14.70;;;9.70;99.90;;;;;;5082268;28;20250;-70
2022/03/31 04:30:58;;;;;;;22.30;13.80;;;9.80;99.90;;;;;;5080730;28;20205;-70
2022/03/31 04:33:26;;;;;;;20.80;14.53;;;9.70;99.90;;;;;;5084224;28;20201;-70
2022/03/31 04:35:53;;;;;;;23.93;14.10;;;9.70;99.90;;;;;;5090317;28;20247;-71
2022/03/31 04:38:20;;;;;;;22.87;15.17;;;9.70;99.90;;;;;;5089935;28;20664;-70
2022/03/31 04:40:47;;;;;;;20.63;13.67;;;9.80;99.90;;;;;;5090288;28;20205;-70
2022/03/31 04:43:14;;;;;;;21.47;13.20;;;9.80;99.90;;;;;;5092772;28;20623;-70
2022/03/31 04:45:41;;;;;;;22.13;14.87;;;9.80;99.90;;;;;;5092422;28;20198;-70
2022/03/31 04:48:10;;;;;;;24.17;14.13;;;9.70;99.90;;;;;;5094635;28;20206;-70
2022/03/31 04:50:37;;;;;;;26.00;13.47;;;9.80;99.90;;;;;;5093890;28;20266;-71
2022/03/31 04:53:06;;;;;;;22.87;14.63;;;9.70;99.90;;;;;;5094108;28;20209;-70
2022/03/31 04:55:33;;;;;;;20.50;13.20;;;9.70;99.90;;;;;;5094248;28;20201;-69
2022/03/31 04:58:00;;;;;;;26.93;15.80;;;9.70;99.90;;;;;;5094133;28;20601;-69
2022/03/31 05:00:27;;;;;;;24.90;16.17;;;9.80;99.90;;;;;;5094482;28;20201;-69
2022/03/31 05:02:56;;;;;;;25.57;16.40;;;9.70;99.90;;;;;;5093574;28;20282;-69
2022/03/31 05:05:24;;;;;;;25.63;14.23;;;9.80;99.90;;;;;;5093617;28;20297;-71
2022/03/31 05:07:51;;;;;;;22.47;13.70;;;9.70;99.90;;;;;;5093704;28;20625;-70
2022/03/31 05:10:18;;;;;;;26.17;15.80;;;9.80;99.90;;;;;;5093783;28;20727;-71
2022/03/31 05:12:45;;;;;;;22.90;15.97;;;9.80;99.90;;;;;;5093490;28;20604;-72
2022/03/31 05:15:13;;;;;;;26.90;14.80;;;9.80;99.90;;;;;;5094007;28;20202;-71
2022/03/31 05:17:40;;;;;;;27.93;15.27;;;9.80;99.90;;;;;;5093434;28;20249;-71
2022/03/31 05:20:09;;;;;;;24.50;15.13;;;9.80;99.90;;;;;;5093616;28;20202;-71
2022/03/31 05:22:38;;;;;;;28.33;16.87;;;9.80;99.90;;;;;;5089438;28;20237;-71
2022/03/31 05:25:07;;;;;;;22.57;14.57;;;9.80;99.90;;;;;;5093848;28;20205;-71
2022/03/31 05:27:34;;;;;;;27.23;16.37;;;9.80;99.90;;;;;;5093542;28;20205;-70
2022/03/31 05:30:01;;;;;;;24.37;14.83;;;9.90;99.90;;;;;;5093674;28;20213;-70
2022/03/31 05:32:28;;;;;;;24.47;16.93;;;9.80;99.90;;;;;;5093879;28;20228;-70
2022/03/31 05:34:55;;;;;;;22.43;13.87;;;9.80;99.90;;;;;;5093181;28;20201;-72
2022/03/31 05:37:23;;;;;;;27.43;16.10;;;9.80;99.90;;;;;;5093692;28;20201;-70
2022/03/31 05:39:52;;;;;;;22.00;15.57;;;9.80;99.90;;;;;;5093265;28;20213;-71
2022/03/31 05:42:19;;;;;;;24.63;15.17;;;9.80;99.90;;;;;;5093295;28;20239;-70
2022/03/31 05:44:47;;;;;;;22.37;14.73;;;9.80;99.90;;;;;;5086473;28;20201;-70
2022/03/31 05:47:14;;;;;;;23.67;15.40;;;9.80;99.90;;;;;;5093395;28;20209;-69
2022/03/31 05:49:41;;;;;;;22.80;14.73;;;9.80;99.90;;;;;;5091739;28;20210;-71
2022/03/31 05:52:08;;;;;;;23.03;14.23;;;9.80;99.90;;;;;;5081794;28;20674;-70
2022/03/31 05:54:36;;;;;;;26.50;16.10;;;9.80;99.90;;;;;;5086053;28;20202;-71
2022/03/31 05:57:05;;;;;;;20.40;14.97;;;9.80;99.90;;;;;;5085497;28;20722;-70
2022/03/31 05:59:32;;;;;;;27.03;15.40;;;9.80;99.90;;;;;;5076824;28;20203;-71
2022/03/31 06:01:59;;;;;;;23.70;15.53;;;9.80;99.90;;;;;;5072521;28;20770;-70
2022/03/31 06:04:26;;;;;;;25.50;15.27;;;9.80;99.90;;;;;;5075376;28;20197;-69
2022/03/31 06:06:53;;;;;;;26.27;17.17;;;9.80;99.90;;;;;;5089662;28;20204;-70
2022/03/31 06:09:21;;;;;;;27.43;16.00;;;9.80;99.90;;;;;;5092172;28;20225;-69
2022/03/31 06:11:48;;;;;;;27.20;18.00;;;9.80;99.90;;;;;;5088037;28;20560;-69
2022/03/31 06:14:16;;;;;;;27.17;16.03;;;9.80;99.90;;;;;;5086205;28;20250;-70
2022/03/31 06:16:43;;;;;;;33.33;20.33;;;9.80;99.90;;;;;;5087341;28;20258;-70
2022/03/31 06:19:10;;;;;;;30.43;18.97;;;9.80;99.90;;;;;;5092378;28;20213;-71
2022/03/31 06:21:37;;;;;;;32.33;20.17;;;9.80;99.90;;;;;;5092244;28;20299;-71
2022/03/31 06:24:05;;;;;;;35.07;21.10;;;9.90;99.90;;;;;;5092663;28;20315;-70
2022/03/31 06:26:33;;;;;;;28.90;18.97;;;9.90;99.90;;;;;;5092522;28;20213;-71
2022/03/31 06:29:01;;;;;;;30.67;19.50;;;9.90;97.00;;;;;;5092826;28;20295;-72
2022/03/31 06:31:30;;;;;;;34.00;21.00;;;9.90;99.90;;;;;;5092614;28;20736;-70
2022/03/31 06:33:57;;;;;;;37.33;19.53;;;10.00;99.90;;;;;;5092252;28;20202;-69
2022/03/31 06:36:24;;;;;;;34.07;20.87;;;10.00;99.90;;;;;;5092588;28;20209;-71
2022/03/31 06:38:51;;;;;;;36.03;22.40;;;10.00;94.90;;;;;;5092014;28;20218;-71
2022/03/31 06:41:18;;;;;;;39.50;21.03;;;10.00;86.10;;;;;;5092323;28;20209;-70
2022/03/31 06:43:46;;;;;;;34.23;21.07;;;10.00;71.00;;;;;;5092087;28;20206;-70
2022/03/31 06:46:14;;;;;;;32.00;20.57;;;10.10;89.30;;;;;;5092285;28;20289;-71
2022/03/31 06:48:46;;;;;;;32.03;20.03;;;10.00;97.80;;;;;;5090387;28;20206;-70
2022/03/31 06:51:14;;;;;;;33.90;21.37;;;9.90;99.90;;;;;;5090646;28;20228;-70
2022/03/31 06:53:42;;;;;;;33.63;20.73;;;9.80;99.90;;;;;;5078770;28;20309;-70
2022/03/31 06:56:10;;;;;;;36.30;23.13;;;10.00;99.90;;;;;;5079739;28;20213;-74
2022/03/31 06:58:38;;;;;;;37.10;21.73;;;10.10;99.90;;;;;;5091975;28;20300;-71
2022/03/31 07:01:05;;;;;;;45.47;24.63;;;10.10;99.90;;;;;;5086566;28;20633;-71
2022/03/31 07:03:32;;;;;;;37.23;24.07;;;10.00;99.90;;;;;;5075708;28;20259;-68
2022/03/31 07:06:01;;;;;;;37.17;22.83;;;10.00;99.90;;;;;;5072143;28;20267;-69
2022/03/31 07:08:28;;;;;;;40.50;22.30;;;10.00;99.90;;;;;;5075859;28;20221;-69
2022/03/31 07:10:55;;;;;;;38.70;22.97;;;10.00;99.90;;;;;;5075546;28;20205;-68
2022/03/31 07:13:22;;;;;;;42.97;22.10;;;10.00;99.90;;;;;;5071919;28;20260;-69
2022/03/31 07:15:49;;;;;;;37.10;21.33;;;9.90;99.90;;;;;;5084230;28;20247;-68
2022/03/31 07:18:16;;;;;;;32.37;21.73;;;10.00;99.90;;;;;;5090826;28;20653;-69
2022/03/31 07:20:43;;;;;;;41.53;23.17;;;10.00;99.90;;;;;;5083705;28;20214;-68
2022/03/31 07:23:12;;;;;;;30.10;19.43;;;10.00;99.90;;;;;;5071493;28;20230;-69
2022/03/31 07:25:40;;;;;;;34.03;19.30;;;9.90;99.90;;;;;;5080165;28;20217;-70
2022/03/31 07:28:07;;;;;;;38.93;20.80;;;9.90;99.90;;;;;;5080247;28;20212;-70
2022/03/31 07:30:34;;;;;;;28.10;19.47;;;9.90;97.60;;;;;;5078730;28;20758;-70
2022/03/31 07:33:04;;;;;;;29.87;18.70;;;9.90;81.40;;;;;;5093177;28;20250;-69
2022/03/31 07:35:33;;;;;;;31.20;20.40;;;9.90;95.20;;;;;;5081789;28;20289;-69
2022/03/31 07:38:03;;;;;;;30.97;18.43;;;9.90;93.50;;;;;;5079315;28;20633;-69
2022/03/31 07:40:32;;;;;;;36.63;18.73;;;9.80;97.70;;;;;;5089551;28;20640;-70
2022/03/31 07:42:59;;;;;;;33.97;19.83;;;9.80;99.00;;;;;;5082551;28;20230;-69
2022/03/31 07:45:26;;;;;;;34.80;21.97;;;9.80;99.90;;;;;;5086926;28;20197;-69
2022/03/31 07:47:53;;;;;;;26.90;20.13;;;9.80;98.20;;;;;;5090591;28;20209;-69
2022/03/31 07:50:20;;;;;;;32.83;19.37;;;9.90;99.90;;;;;;5084256;28;20591;-69
2022/03/31 07:52:47;;;;;;;34.10;19.30;;;9.90;91.30;;;;;;5090335;28;20562;-69
2022/03/31 07:55:16;;;;;;;33.97;20.17;;;10.00;94.80;;;;;;5091051;28;20205;-68
2022/03/31 07:57:45;;;;;;;25.73;17.30;;;10.30;74.50;;;;;;5090363;28;20259;-68
2022/03/31 08:00:14;;;;;;;29.17;18.17;;;10.30;46.10;;;;;;5078296;28;20251;-69
2022/03/31 08:02:42;;;;;;;30.73;19.60;;;10.40;39.60;;;;;;5085123;28;20260;-70
2022/03/31 08:05:10;;;;;;;30.93;18.43;;;10.40;39.90;;;;;;5076520;28;20228;-70
2022/03/31 08:07:37;;;;;;;28.50;19.10;;;10.50;46.70;;;;;;5082258;28;20244;-69
2022/03/31 08:10:05;;;;;;;25.63;18.00;;;10.50;26.90;;;;;;5076250;28;20218;-67
2022/03/31 08:12:33;;;;;;;25.50;18.17;;;10.50;23.30;;;;;;5088215;28;20206;-68
2022/03/31 08:15:03;;;;;;;26.70;17.80;;;10.60;23.80;;;;;;5077951;28;20214;-68
2022/03/31 08:17:30;;;;;;;31.13;18.10;;;10.80;19.90;;;;;;5069236;28;20263;-68
2022/03/31 08:19:57;;;;;;;27.83;16.43;;;10.80;6.50;;;;;;5076866;28;20251;-68
2022/03/31 08:22:26;;;;;;;27.20;18.57;;;10.70;1.00;;;;;;5078787;28;20770;-68
2022/03/31 08:24:53;;;;;;;26.00;17.83;;;10.60;4.20;;;;;;5070254;28;20209;-68
2022/03/31 08:27:20;;;;;;;28.70;17.30;;;10.60;1.00;;;;;;5070596;28;20271;-68
2022/03/31 08:29:47;;;;;;;22.43;15.37;;;10.70;1.00;;;;;;5069948;28;20210;-68
2022/03/31 08:32:15;;;;;;;27.47;17.17;;;10.80;4.50;;;;;;5070821;28;20260;-68
2022/03/31 08:34:42;;;;;;;28.30;17.60;;;10.80;1.00;;;;;;5070271;28;20214;-68
2022/03/31 08:37:10;;;;;;;31.90;17.63;;;10.90;1.00;;;;;;5074776;28;20625;-67
2022/03/31 08:39:37;;;;;;;32.80;16.77;;;10.80;1.00;;;;;;5081722;28;20274;-68
2022/03/31 08:42:06;;;;;;;31.83;18.63;;;10.80;1.10;;;;;;5081047;28;20205;-68
2022/03/31 08:44:35;;;;;;;26.23;20.23;;;10.80;1.00;;;;;;5083219;28;20665;-69
2022/03/31 08:47:02;;;;;;;29.40;16.40;;;10.90;1.00;;;;;;5075855;28;20198;-68
2022/03/31 08:49:31;;;;;;;30.10;17.40;;;11.00;1.00;;;;;;5089566;28;20735;-70
2022/03/31 08:51:58;;;;;;;25.20;15.37;;;10.90;1.00;;;;;;5082610;28;20237;-68
2022/03/31 08:54:25;;;;;;;30.63;17.57;;;11.20;1.00;;;;;;5070374;28;20665;-69
2022/03/31 08:56:54;;;;;;;22.97;16.47;;;11.50;1.00;;;;;;5075152;28;20202;-68
2022/03/31 08:59:21;;;;;;;24.03;16.37;;;11.80;1.00;;;;;;5081305;28;20205;-68
2022/03/31 09:01:48;;;;;;;23.83;15.87;;;12.30;1.00;;;;;;5089774;28;20201;-70
2022/03/31 09:04:22;;;;;;;28.57;16.10;;;12.40;1.00;;;;;;5080193;28;20279;-68
2022/03/31 09:07:02;;;;;;;25.73;18.17;;;11.90;1.00;;;;;;5083546;28;20274;-68
2022/03/31 09:09:29;;;;;;;29.80;17.13;;;12.00;1.00;;;;;;5076867;28;20238;-68
2022/03/31 09:11:57;;;;;;;23.47;16.17;;;12.60;1.00;;;;;;5082081;28;20201;-69
2022/03/31 09:14:31;;;;;;;27.00;17.00;;;12.60;1.00;;;;;;5087071;28;20206;-69
2022/03/31 09:16:58;;;;;;;25.43;15.40;;;12.30;1.00;;;;;;5085574;28;20198;-73
2022/03/31 09:19:26;;;;;;;23.88;14.60;;;12.00;1.00;;;;;;5078749;28;20267;-72
2022/03/31 09:21:58;;;;;;;20.57;14.80;;;11.60;1.00;;;;;;5075771;28;20213;-70
2022/03/31 09:24:27;;;;;;;23.97;15.77;;;11.30;1.00;;;;;;5077559;28;20206;-71
2022/03/31 09:26:56;;;;;;;28.03;16.43;;;11.50;1.00;;;;;;5076008;28;20206;-69
2022/03/31 09:29:24;;;;;;;24.90;15.90;;;11.70;1.00;;;;;;5078134;28;20211;-71
2022/03/31 09:31:52;;;;;;;24.63;16.67;;;12.10;1.00;;;;;;5086390;28;20723;-72
2022/03/31 09:34:20;;;;;;;25.45;15.75;;;12.60;1.00;;;;;;5084916;28;20237;-75
2022/03/31 09:36:51;;;;;;;22.00;16.03;;;13.20;1.00;;;;;;5081492;28;20252;-72
2022/03/31 09:39:22;;;;;;;19.75;14.02;;;13.20;1.00;;;;;;5082013;28;20224;-71
2022/03/31 09:41:50;;;;;;;26.33;17.05;;;13.30;1.00;;;;;;5089577;28;20202;-68
2022/03/31 09:44:19;;;;;;;24.80;16.88;;;13.10;1.00;;;;;;5088269;28;20239;-70
2022/03/31 09:46:47;;;;;;;25.10;15.30;;;13.30;1.00;;;;;;5088242;28;20198;-69
2022/03/31 09:49:17;;;;;;;19.88;14.77;;;13.60;1.00;;;;;;5085002;28;20580;-70
2022/03/31 09:51:47;;;;;;;21.60;15.18;;;13.70;1.00;;;;;;5089346;28;20247;-70
2022/03/31 09:54:14;;;;;;;18.73;14.45;;;13.50;1.00;;;;;;5093139;28;20587;-71
2022/03/31 09:56:43;;;;;;;22.70;14.93;;;12.70;1.00;;;;;;5090874;28;20205;-71
2022/03/31 09:59:12;;;;;;;23.23;15.57;;;12.30;1.00;;;;;;5085237;28;20579;-71
2022/03/31 10:01:39;;;;;;;24.65;16.15;;;12.00;1.00;;;;;;5091517;28;20673;-71
2022/03/31 10:04:08;;;;;;;19.80;14.48;;;12.10;1.00;;;;;;5093169;28;20237;-71
2022/03/31 10:06:36;;;;;;;22.35;13.45;;;12.40;1.00;;;;;;5087309;28;20555;-70
2022/03/31 10:09:05;;;;;;;20.23;15.10;;;13.10;1.00;;;;;;5088518;28;20221;-69
2022/03/31 10:11:34;;;;;;;20.08;13.85;;;13.50;1.00;;;;;;5072969;28;20206;-72
2022/03/31 10:14:17;;;;;;;19.00;14.18;;;13.60;1.00;;;;;;5081473;28;20343;-70
2022/03/31 10:16:47;;;;;;;20.88;13.63;;;12.90;1.00;;;;;;5091531;28;20201;-71
2022/03/31 10:19:26;;;;;;;22.75;17.05;;;12.50;1.00;;;;;;5092016;28;20209;-72
2022/03/31 10:21:58;;;;;;;23.98;15.23;;;15.00;1.00;;;;;;5088760;28;21048;-73
2022/03/31 10:24:44;;;;;;;22.52;15.38;;;16.20;1.00;;;;;;5078295;28;20622;-73
2022/03/31 10:27:15;;;;;;;22.40;14.30;;;15.90;1.00;;;;;;5091551;28;20213;-82
2022/03/31 10:29:45;;;;;;;18.73;14.13;;;15.20;1.00;;;;;;5088502;28;20213;-77
2022/03/31 10:32:21;;;;;;;19.27;14.45;;;14.00;1.00;;;;;;5080846;28;20210;-78
2022/03/31 10:34:49;;;;;;;24.17;13.02;;;13.80;1.00;;;;;;5079637;28;20208;-73
2022/03/31 10:37:32;;;;;;;18.85;13.52;;;14.10;1.00;;;;;;5080599;28;20642;-70
2022/03/31 10:40:00;;;;;;;20.05;13.23;;;14.20;1.00;;;;;;5077777;28;20210;-75
2022/03/31 10:42:27;;;;;;;20.50;14.75;;;14.00;1.00;;;;;;5084396;28;20691;-74
2022/03/31 10:45:13;;;;;;;19.00;13.00;;;13.60;1.00;;;;;;5081986;28;20256;-74
2022/03/31 10:47:42;;;;;;;20.35;14.50;;;13.50;1.00;;;;;;5086437;28;20212;-74
2022/03/31 10:50:11;;;;;;;18.92;11.95;;;13.30;1.00;;;;;;5084395;28;20262;-74
2022/03/31 10:52:38;;;;;;;18.63;13.02;;;13.10;1.00;;;;;;5091930;28;20205;-71
2022/03/31 10:55:08;;;;;;;15.65;11.90;;;13.70;1.00;;;;;;5090616;28;20214;-74
2022/03/31 10:57:43;;;;;;;19.90;12.60;;;13.40;1.00;;;;;;5076632;28;20665;-74
2022/03/31 11:00:14;;;;;;;25.52;14.25;;;13.10;1.00;;;;;;5083183;28;20205;-73
2022/03/31 11:02:43;;;;;;;21.15;14.57;;;12.50;1.00;;;;;;5091365;28;20241;-76
2022/03/31 11:05:10;;;;;;;20.85;13.85;;;12.70;1.00;;;;;;5091168;28;20556;-72
2022/03/31 11:07:38;;;;;;;20.27;12.35;;;13.20;1.00;;;;;;5085983;28;20206;-73
2022/03/31 11:10:07;;;;;;;17.90;13.00;;;13.60;1.00;;;;;;5080037;28;20225;-73
2022/03/31 11:12:36;;;;;;;17.63;12.68;;;13.50;1.00;;;;;;5072073;28;20268;-75
2022/03/31 11:15:07;;;;;;;17.92;11.70;;;13.10;1.00;;;;;;5083946;28;20258;-73
2022/03/31 11:17:36;;;;;;;18.55;11.45;;;13.10;1.00;;;;;;5071727;28;20206;-71
2022/03/31 11:20:16;;;;;;;17.45;11.05;;;13.90;1.00;;;;;;5071749;28;20202;-73
2022/03/31 11:22:48;;;;;;;16.23;11.35;;;14.10;1.00;;;;;;5070944;28;20213;-74
2022/03/31 11:25:16;;;;;;;13.52;9.05;;;14.30;1.00;;;;;;5071655;28;20208;-73
2022/03/31 11:27:46;;;;;;;14.15;9.68;;;14.80;1.00;;;;;;5071309;28;20252;-73
2022/03/31 11:30:16;;;;;;;14.60;9.60;;;14.90;1.00;;;;;;5070486;28;20673;-70
2022/03/31 11:32:45;;;;;;;9.77;8.45;;;15.00;1.00;;;;;;5070980;28;20692;-70
2022/03/31 11:35:14;;;;;;;12.25;7.80;;;15.20;1.00;;;;;;5071380;28;20202;-70
2022/03/31 11:37:51;;;;;;;12.68;9.25;;;15.20;1.00;;;;;;5070782;28;20202;-71
2022/03/31 11:40:20;;;;;;;12.45;9.48;;;15.20;1.00;;;;;;5071375;28;20202;-71
2022/03/31 11:42:49;;;;;;;12.50;10.27;;;15.40;1.00;;;;;;5069623;28;20206;-72
2022/03/31 11:45:27;;;;;;;12.02;8.80;;;15.80;1.00;;;;;;5076546;28;20252;-72
2022/03/31 11:48:01;;;;;;;12.73;9.57;;;15.50;1.00;;;;;;5088970;28;20213;-72
2022/03/31 11:50:30;;;;;;;13.13;7.80;;;15.60;1.00;;;;;;5090030;28;20255;-73
2022/03/31 11:52:57;;;;;;;11.00;7.70;;;15.50;1.00;;;;;;5089720;28;20197;-71
2022/03/31 11:55:25;;;;;;;9.43;7.93;;;15.50;1.00;;;;;;5088042;28;20209;-73
2022/03/31 11:57:54;;;;;;;10.38;8.68;;;15.80;1.00;;;;;;5089915;28;20201;-71
2022/03/31 12:00:23;;;;;;;14.18;7.57;;;15.90;1.00;;;;;;5086866;28;20206;-72
2022/03/31 12:03:02;;;;;;;13.60;8.50;;;15.90;1.00;;;;;;5085960;28;20236;-72
2022/03/31 12:05:29;;;;;;;13.50;7.55;;;15.80;1.00;;;;;;5091133;28;20227;-74
2022/03/31 12:07:58;;;;;;;8.95;7.22;;;15.00;1.00;;;;;;5090218;28;20704;-73
2022/03/31 12:10:27;;;;;;;11.90;8.05;;;15.40;1.00;;;;;;5091362;28;20205;-74
2022/03/31 12:12:55;;;;;;;11.57;7.85;;;15.70;1.00;;;;;;5090147;28;20212;-73
2022/03/31 12:15:25;;;;;;;12.75;8.40;;;15.80;1.00;;;;;;5090675;28;20327;-74
2022/03/31 12:18:07;;;;;;;11.65;8.40;;;16.10;1.00;;;;;;5090412;28;20252;-73
2022/03/31 12:20:36;;;;;;;13.50;8.57;;;16.20;1.00;;;;;;5090376;28;20204;-72
2022/03/31 12:23:05;;;;;;;10.52;7.80;;;15.70;1.00;;;;;;5090774;28;20300;-73
2022/03/31 12:25:34;;;;;;;10.02;7.55;;;15.90;1.00;;;;;;5090872;28;20668;-72
2022/03/31 12:28:06;;;;;;;11.95;8.38;;;16.10;1.00;;;;;;5090940;28;20197;-72
2022/03/31 12:30:42;;;;;;;8.38;6.47;;;15.90;1.00;;;;;;5090589;28;20205;-71
2022/03/31 12:33:25;;;;;;;9.40;7.97;;;15.80;1.00;;;;;;5090842;28;20209;-71
2022/03/31 12:36:03;;;;;;;15.15;9.40;;;15.90;1.00;;;;;;5089976;28;20726;-73
2022/03/31 12:38:38;;;;;;;10.98;7.95;;;15.30;1.00;;;;;;5090707;28;20205;-71
2022/03/31 12:41:09;;;;;;;8.35;6.60;;;14.90;1.00;;;;;;5090525;28;20555;-72
2022/03/31 12:43:36;;;;;;;10.25;7.68;;;14.90;1.00;;;;;;5086788;28;20221;-72
2022/03/31 12:46:14;;;;;;;12.30;7.32;;;14.60;1.00;;;;;;5090665;28;20205;-72
2022/03/31 12:48:53;;;;;;;11.18;7.88;;;15.30;1.00;;;;;;5090533;28;20201;-74